Terminal Aerodrome Forecast
Issued by NWS Raleigh/Durham, NC

Home | Current Version | Previous Version | Text Only | Print | Product List | Glossary On
Versions: 1 2 3 4 5 6 7 8 9 10 11 12 13 14 15 16 17 18 19 20 21 22 23 24 25 26 27 28 29 30
000
FTUS42 KRAH 181938 AAB
TAFRDU
TAF AMD
KRDU 181938Z 1820/1918 24005KT P6SM FEW200
     FM190700 VRB02KT 3SM BR SCT025
     FM190900 VRB02KT 2SM BR SCT003
      TEMPO 1909/1912 1SM BR BKN003
     FM191400 VRB03KT P6SM FEW250=

USA.gov is the U.S. government's official web portal to all federal, state and local government web resources and services.